createdAt,value
2019-03-31T00:00:33.113Z,7.22
2019-03-31T00:03:04.241Z,8.83
2019-03-31T00:05:37.323Z,9.45
2019-03-31T00:08:08.201Z,6.87
2019-03-31T00:10:39.322Z,6.33
2019-03-31T00:13:10.334Z,7.75
2019-03-31T00:15:41.569Z,9.05
2019-03-31T00:18:12.586Z,6.75
2019-03-31T00:20:44.627Z,11.25
2019-03-31T00:23:16.759Z,7.17
2019-03-31T00:25:51.306Z,10.28
2019-03-31T00:28:22.537Z,7.37
2019-03-31T00:30:54.295Z,8.20
2019-03-31T00:33:25.175Z,6.60
2019-03-31T00:35:56.140Z,8.53
2019-03-31T00:38:27.209Z,10.10
2019-03-31T00:40:58.676Z,6.95
2019-03-31T00:43:29.655Z,8.48
2019-03-31T00:46:00.705Z,9.53
2019-03-31T00:48:31.693Z,15.43
2019-03-31T00:51:02.857Z,8.45
2019-03-31T00:53:33.855Z,7.30
2019-03-31T00:56:04.994Z,8.10
2019-03-31T00:58:37.137Z,8.70
2019-03-31T01:01:36.254Z,7.40
2019-03-31T01:04:02.794Z,7.60
2019-03-31T01:06:34.289Z,6.95
2019-03-31T01:09:09.125Z,7.20
2019-03-31T01:11:42.001Z,7.12
2019-03-31T01:14:13.753Z,7.87
2019-03-31T01:16:45.064Z,8.05
2019-03-31T01:19:16.269Z,7.55
2019-03-31T01:21:48.682Z,7.85
2019-03-31T01:24:19.795Z,8.35
2019-03-31T01:26:50.935Z,8.33
2019-03-31T01:29:22.520Z,8.85
2019-03-31T01:31:55.680Z,6.80
2019-03-31T01:34:27.980Z,9.23
2019-03-31T01:36:59.106Z,8.95
2019-03-31T01:39:31.763Z,7.62
2019-03-31T01:42:03.049Z,7.17
2019-03-31T01:44:34.069Z,7.95
2019-03-31T01:47:07.846Z,6.70
2019-03-31T01:49:39.007Z,9.75
2019-03-31T01:52:10.122Z,8.18
2019-03-31T01:54:42.187Z,8.53
2019-03-31T01:57:13.491Z,6.90
2019-03-31T01:59:44.515Z,6.22
2019-03-31T02:02:22.330Z,8.00
2019-03-31T02:04:53.414Z,8.63
2019-03-31T02:07:25.407Z,5.97
2019-03-31T02:09:56.351Z,7.05
2019-03-31T02:12:27.385Z,7.42
2019-03-31T02:14:58.569Z,7.92
2019-03-31T02:17:29.586Z,9.53
2019-03-31T02:20:00.526Z,7.30
2019-03-31T02:22:31.791Z,8.03
2019-03-31T02:25:02.734Z,6.90
2019-03-31T02:27:33.827Z,7.97
2019-03-31T02:30:05.173Z,8.43
2019-03-31T02:32:36.291Z,9.43
2019-03-31T02:35:07.229Z,9.83
2019-03-31T02:37:38.496Z,10.13
2019-03-31T02:40:09.765Z,10.90
2019-03-31T02:42:40.866Z,9.25
2019-03-31T02:45:11.962Z,8.15
2019-03-31T02:47:42.993Z,8.80
2019-03-31T02:50:18.075Z,10.93
2019-03-31T02:52:49.188Z,12.37
2019-03-31T02:55:20.227Z,13.95
2019-03-31T02:57:51.808Z,7.12
2019-03-31T03:00:23.807Z,7.80
2019-03-31T03:02:55.906Z,7.62
2019-03-31T03:05:28.438Z,10.70
2019-03-31T03:08:00.688Z,8.68
2019-03-31T03:10:33.132Z,9.50
2019-03-31T03:13:06.520Z,8.40
2019-03-31T03:15:45.998Z,9.40
2019-03-31T03:18:16.980Z,9.80
2019-03-31T03:20:48.075Z,9.35
2019-03-31T03:23:20.212Z,8.08
2019-03-31T03:25:56.489Z,8.50
2019-03-31T03:28:24.035Z,9.28
2019-03-31T03:30:58.254Z,11.10
2019-03-31T03:33:29.481Z,10.05
2019-03-31T03:36:00.732Z,9.03
2019-03-31T03:38:31.890Z,11.22
2019-03-31T03:41:02.840Z,9.10
2019-03-31T03:43:34.019Z,8.83
2019-03-31T03:46:05.196Z,8.80
2019-03-31T03:48:36.438Z,9.85
2019-03-31T03:51:07.508Z,11.20
2019-03-31T03:53:38.745Z,7.90
2019-03-31T03:56:09.732Z,9.73
2019-03-31T03:58:40.782Z,10.58
2019-03-31T04:01:22.453Z,10.38
2019-03-31T04:03:53.572Z,9.85
2019-03-31T04:06:24.567Z,10.70
2019-03-31T04:08:59.066Z,10.53
2019-03-31T04:11:30.567Z,12.80
2019-03-31T04:14:01.701Z,10.95
2019-03-31T04:16:32.810Z,9.80
2019-03-31T04:19:03.936Z,8.48
2019-03-31T04:21:35.225Z,12.00
2019-03-31T04:24:08.227Z,10.53
2019-03-31T04:26:39.500Z,9.83
2019-03-31T04:29:10.725Z,9.83
2019-03-31T04:31:41.888Z,13.55
2019-03-31T04:34:14.908Z,10.35
2019-03-31T04:36:45.753Z,12.98
2019-03-31T04:39:16.893Z,10.23
2019-03-31T04:41:47.939Z,11.97
2019-03-31T04:44:18.984Z,13.08
2019-03-31T04:46:50.059Z,10.32
2019-03-31T04:49:21.102Z,11.70
2019-03-31T04:51:52.069Z,12.43
2019-03-31T04:54:23.437Z,13.72
2019-03-31T04:56:54.402Z,9.73
2019-03-31T04:59:25.493Z,9.60
2019-03-31T05:01:56.476Z,9.93
2019-03-31T05:04:27.558Z,10.48
2019-03-31T05:06:58.493Z,9.38
2019-03-31T05:09:29.571Z,12.37
2019-03-31T05:12:00.504Z,13.10
2019-03-31T05:14:31.743Z,11.60
2019-03-31T05:17:02.730Z,11.35
2019-03-31T05:19:33.833Z,11.05
2019-03-31T05:22:04.932Z,10.40
2019-03-31T05:24:37.971Z,10.30
2019-03-31T05:27:09.071Z,11.30
2019-03-31T05:29:40.156Z,10.88
2019-03-31T05:32:11.125Z,10.82
2019-03-31T05:34:42.165Z,12.15
2019-03-31T05:37:13.489Z,10.68
2019-03-31T05:39:44.563Z,14.10
2019-03-31T05:42:15.583Z,12.82
2019-03-31T05:44:46.842Z,10.95
2019-03-31T05:47:17.838Z,23.83
2019-03-31T05:49:54.200Z,15.50
2019-03-31T05:52:25.253Z,11.45
2019-03-31T05:54:56.397Z,10.72
2019-03-31T05:57:27.323Z,12.58
2019-03-31T05:59:58.375Z,12.58
2019-03-31T06:02:29.611Z,12.37
2019-03-31T06:05:00.678Z,11.95
2019-03-31T06:07:31.821Z,12.20
2019-03-31T06:10:07.957Z,9.78
2019-03-31T06:12:39.085Z,11.10
2019-03-31T06:15:10.043Z,11.10
2019-03-31T06:17:41.252Z,11.33
2019-03-31T06:20:12.450Z,12.63
2019-03-31T06:22:43.571Z,12.75
2019-03-31T06:25:14.679Z,11.60
2019-03-31T06:27:48.233Z,11.28
2019-03-31T06:30:19.333Z,13.65
2019-03-31T06:32:50.321Z,12.03
2019-03-31T06:35:21.363Z,14.07
2019-03-31T06:37:52.327Z,11.45
2019-03-31T06:40:23.633Z,13.30
2019-03-31T06:42:54.767Z,12.95
2019-03-31T06:45:25.940Z,14.47
2019-03-31T06:48:00.682Z,12.28
2019-03-31T06:50:31.867Z,13.35
2019-03-31T06:53:03.106Z,11.85
2019-03-31T06:55:34.103Z,11.70
2019-03-31T06:58:07.647Z,12.88
2019-03-31T07:00:38.687Z,13.10
2019-03-31T07:03:09.595Z,16.55
2019-03-31T07:05:40.638Z,12.37
2019-03-31T07:08:11.763Z,12.50
2019-03-31T07:10:42.917Z,10.78
2019-03-31T07:13:14.196Z,13.03
2019-03-31T07:15:45.277Z,13.45
2019-03-31T07:18:16.307Z,15.30
2019-03-31T07:20:50.069Z,13.65
2019-03-31T07:23:21.031Z,18.48
2019-03-31T07:25:51.959Z,15.88
2019-03-31T07:28:23.235Z,16.42
2019-03-31T07:30:54.718Z,16.05
2019-03-31T07:33:26.037Z,11.60
2019-03-31T07:35:57.065Z,12.13
2019-03-31T07:38:38.246Z,11.53
2019-03-31T07:41:12.119Z,11.60
2019-03-31T07:43:33.947Z,11.65
2019-03-31T07:46:05.163Z,13.32
2019-03-31T07:48:36.210Z,11.85
2019-03-31T07:51:07.383Z,11.97
2019-03-31T07:53:38.538Z,16.50
2019-03-31T07:56:09.497Z,12.40
2019-03-31T07:58:40.704Z,12.40
2019-03-31T08:01:11.796Z,13.95
2019-03-31T08:03:42.842Z,11.10
2019-03-31T08:06:13.883Z,10.75
2019-03-31T08:08:45.063Z,12.15
2019-03-31T08:11:17.394Z,13.35
2019-03-31T08:13:55.006Z,13.40
2019-03-31T08:16:24.479Z,10.82
2019-03-31T08:18:55.418Z,11.55
2019-03-31T08:21:26.538Z,15.05
2019-03-31T08:23:57.703Z,21.37
2019-03-31T08:26:28.858Z,12.18
2019-03-31T08:29:00.151Z,13.88
2019-03-31T08:31:31.404Z,13.32
2019-03-31T08:34:02.584Z,14.13
2019-03-31T08:36:35.276Z,17.23
2019-03-31T08:39:09.014Z,12.70
2019-03-31T08:41:40.189Z,12.37
2019-03-31T08:44:11.671Z,12.82
2019-03-31T08:46:42.858Z,13.53
2019-03-31T08:49:14.463Z,14.00
2019-03-31T08:51:45.459Z,15.55
2019-03-31T08:54:16.507Z,16.67
2019-03-31T08:56:47.772Z,13.53
2019-03-31T08:59:18.978Z,17.92
2019-03-31T09:01:50.160Z,15.00
2019-03-31T09:04:21.433Z,16.40
2019-03-31T09:06:58.040Z,14.45
2019-03-31T09:09:31.449Z,17.30
2019-03-31T09:12:02.503Z,16.10
2019-03-31T09:14:33.752Z,15.28
2019-03-31T09:17:04.932Z,18.02
2019-03-31T09:19:37.172Z,16.20
2019-03-31T09:22:08.527Z,17.17
2019-03-31T09:24:39.776Z,15.80
2019-03-31T09:27:10.845Z,17.05
2019-03-31T09:29:42.267Z,14.83
2019-03-31T09:32:15.856Z,17.73
2019-03-31T09:34:47.009Z,15.65
2019-03-31T09:37:18.995Z,16.87
2019-03-31T09:39:51.487Z,18.60
2019-03-31T09:42:22.802Z,17.80
2019-03-31T09:44:55.261Z,18.77
2019-03-31T09:47:26.475Z,16.42
2019-03-31T09:49:58.197Z,16.70
2019-03-31T09:52:29.216Z,18.62
2019-03-31T09:55:00.558Z,16.93
2019-03-31T09:57:33.202Z,18.95
2019-03-31T10:00:07.193Z,19.07
2019-03-31T10:02:39.735Z,17.02
2019-03-31T10:05:11.438Z,18.92
2019-03-31T10:07:44.826Z,18.27
2019-03-31T10:10:31.079Z,17.30
2019-03-31T10:13:02.104Z,23.90
2019-03-31T10:15:33.120Z,19.42
2019-03-31T10:18:04.345Z,18.67
2019-03-31T10:20:38.991Z,20.57
2019-03-31T10:23:10.373Z,18.20
2019-03-31T10:25:50.647Z,17.75
2019-03-31T10:28:21.964Z,20.27
2019-03-31T10:30:52.946Z,17.67
2019-03-31T10:33:27.495Z,16.17
2019-03-31T10:35:58.581Z,16.42
2019-03-31T10:38:29.711Z,16.30
2019-03-31T10:41:00.926Z,16.10
2019-03-31T10:43:31.986Z,18.65
2019-03-31T10:46:03.160Z,20.43
2019-03-31T10:48:34.345Z,19.75
2019-03-31T10:51:05.379Z,21.07
2019-03-31T10:53:36.541Z,16.93
2019-03-31T10:56:07.756Z,18.77
2019-03-31T10:58:38.953Z,19.20
2019-03-31T11:01:10.590Z,18.45
2019-03-31T11:03:41.934Z,16.12
2019-03-31T11:06:14.017Z,16.35
2019-03-31T11:08:45.677Z,20.12
2019-03-31T11:11:16.740Z,19.42
2019-03-31T11:13:47.976Z,15.85
2019-03-31T11:16:19.044Z,16.90
2019-03-31T11:18:50.080Z,18.73
2019-03-31T11:21:29.662Z,15.35
2019-03-31T11:24:04.964Z,19.57
2019-03-31T11:26:35.844Z,20.23
2019-03-31T11:29:08.065Z,17.55
2019-03-31T11:31:39.119Z,18.85
2019-03-31T11:34:10.240Z,20.05
2019-03-31T11:36:41.231Z,18.57
2019-03-31T11:39:16.108Z,16.25
2019-03-31T11:41:45.771Z,17.17
2019-03-31T11:44:16.854Z,16.85
2019-03-31T11:46:47.836Z,17.37
2019-03-31T11:49:19.067Z,17.57
2019-03-31T11:51:50.228Z,17.65
2019-03-31T11:54:21.522Z,14.15
2019-03-31T11:56:52.705Z,14.23
2019-03-31T11:59:23.996Z,17.27
2019-03-31T12:01:55.018Z,17.55
2019-03-31T12:04:26.254Z,16.27
2019-03-31T12:06:57.189Z,18.32
2019-03-31T12:09:29.711Z,16.93
2019-03-31T12:12:00.748Z,17.92
2019-03-31T12:14:31.663Z,21.20
2019-03-31T12:17:02.675Z,18.60
2019-03-31T12:19:33.620Z,16.80
2019-03-31T12:22:04.676Z,18.87
2019-03-31T12:24:35.795Z,16.17
2019-03-31T12:27:10.310Z,17.15
2019-03-31T12:29:42.315Z,20.90
2019-03-31T12:32:13.462Z,18.00
2019-03-31T12:34:44.559Z,15.50
2019-03-31T12:37:15.663Z,17.12
2019-03-31T12:39:46.744Z,21.00
2019-03-31T12:42:17.834Z,16.60
2019-03-31T12:44:49.039Z,11.97
2019-03-31T12:47:20.114Z,14.15
2019-03-31T12:49:51.084Z,15.45
2019-03-31T12:52:22.622Z,14.50
2019-03-31T12:54:53.651Z,14.75
2019-03-31T12:57:24.825Z,12.60
2019-03-31T12:59:56.022Z,15.10
2019-03-31T13:02:26.902Z,9.60
2019-03-31T13:04:58.431Z,10.18
2019-03-31T13:07:29.467Z,9.40
2019-03-31T13:10:00.787Z,11.00
2019-03-31T13:12:34.850Z,12.68
2019-03-31T13:15:04.735Z,10.18
2019-03-31T13:17:35.787Z,11.97
2019-03-31T13:20:07.535Z,10.80
2019-03-31T13:22:38.519Z,9.03
2019-03-31T13:25:09.789Z,8.78
2019-03-31T13:27:40.842Z,12.73
2019-03-31T13:30:13.190Z,11.63
2019-03-31T13:32:44.292Z,11.73
2019-03-31T13:35:15.309Z,10.55
2019-03-31T13:37:46.321Z,11.22
2019-03-31T13:40:17.412Z,11.97
2019-03-31T13:42:48.512Z,17.10
2019-03-31T13:45:22.640Z,13.72
2019-03-31T13:47:53.697Z,12.60
2019-03-31T13:50:25.036Z,11.85
2019-03-31T13:52:56.187Z,15.58
2019-03-31T13:55:27.364Z,11.05
2019-03-31T13:57:59.458Z,11.97
2019-03-31T14:00:39.453Z,10.28
2019-03-31T14:03:10.700Z,15.10
2019-03-31T14:05:44.094Z,13.53
2019-03-31T14:08:25.566Z,10.95
2019-03-31T14:10:47.771Z,12.50
2019-03-31T14:13:18.899Z,14.23
2019-03-31T14:15:49.944Z,9.43
2019-03-31T14:18:20.864Z,9.78
2019-03-31T14:20:53.118Z,10.38
2019-03-31T14:23:24.295Z,9.68
2019-03-31T14:25:55.659Z,13.10
2019-03-31T14:28:26.810Z,10.43
2019-03-31T14:30:58.823Z,10.63
2019-03-31T14:33:29.887Z,10.13
2019-03-31T14:36:01.168Z,10.28
2019-03-31T14:38:40.479Z,11.43
2019-03-31T14:41:08.622Z,9.60
2019-03-31T14:43:39.815Z,8.48
2019-03-31T14:46:11.055Z,6.92
2019-03-31T14:48:42.536Z,10.88
2019-03-31T14:51:15.356Z,10.28
2019-03-31T14:53:46.579Z,10.70
2019-03-31T14:56:17.688Z,9.10
2019-03-31T14:58:49.778Z,7.65
2019-03-31T15:01:21.358Z,9.75
2019-03-31T15:03:52.543Z,11.00
2019-03-31T15:06:24.786Z,12.37
2019-03-31T15:08:58.564Z,13.53
2019-03-31T15:11:30.171Z,12.88
2019-03-31T15:14:01.388Z,12.90
2019-03-31T15:16:32.764Z,12.70
2019-03-31T15:19:03.817Z,13.08
2019-03-31T15:21:34.891Z,12.82
2019-03-31T15:24:05.941Z,13.98
2019-03-31T15:26:37.645Z,12.50
2019-03-31T15:29:08.639Z,15.65
2019-03-31T15:31:39.777Z,20.85
2019-03-31T15:34:13.507Z,27.50
2019-03-31T15:36:44.398Z,28.52
2019-03-31T15:39:15.553Z,27.75
2019-03-31T15:41:46.732Z,29.27
2019-03-31T15:44:17.862Z,19.27
2019-03-31T15:46:49.123Z,15.75
2019-03-31T15:49:20.248Z,31.82
2019-03-31T15:51:51.254Z,38.33
2019-03-31T15:54:22.330Z,48.52
2019-03-31T15:56:53.272Z,51.35
2019-03-31T15:59:24.338Z,49.00
2019-03-31T16:01:55.955Z,48.65
2019-03-31T16:04:27.126Z,58.45
2019-03-31T16:06:58.229Z,57.40
2019-03-31T16:09:28.592Z,57.40
2019-03-31T16:11:59.067Z,54.48
2019-03-31T16:14:29.845Z,55.33
2019-03-31T16:17:00.198Z,54.03
2019-03-31T16:19:30.810Z,54.18
2019-03-31T16:22:01.203Z,54.40
2019-03-31T16:24:37.951Z,56.73
2019-03-31T16:27:08.430Z,52.38
2019-03-31T16:29:38.838Z,52.98
2019-03-31T16:32:10.714Z,50.48
2019-03-31T16:34:41.026Z,54.25
2019-03-31T16:37:11.401Z,56.23
2019-03-31T16:39:41.818Z,52.90
2019-03-31T16:42:12.320Z,56.42
2019-03-31T16:44:57.201Z,51.30
2019-03-31T16:47:16.557Z,54.40
2019-03-31T16:49:46.990Z,54.13
2019-03-31T16:52:17.525Z,49.70
2019-03-31T16:54:47.935Z,51.42
2019-03-31T16:57:18.515Z,50.35
2019-03-31T16:59:48.977Z,46.30
2019-03-31T17:02:19.436Z,49.25
2019-03-31T17:04:49.781Z,50.92
2019-03-31T17:07:20.322Z,47.27
2019-03-31T17:09:51.903Z,45.98
2019-03-31T17:12:22.717Z,49.13
2019-03-31T17:14:53.225Z,45.52
2019-03-31T17:17:23.649Z,42.38
2019-03-31T17:19:53.996Z,42.05
2019-03-31T17:22:24.682Z,40.45
2019-03-31T17:24:55.148Z,42.00
2019-03-31T17:27:25.700Z,41.48
2019-03-31T17:29:56.172Z,42.33
2019-03-31T17:32:27.837Z,40.12
2019-03-31T17:34:58.259Z,38.05
2019-03-31T17:37:28.799Z,35.33
2019-03-31T17:40:05.845Z,37.25
2019-03-31T17:42:31.410Z,37.83
2019-03-31T17:45:01.729Z,38.35
2019-03-31T17:47:32.159Z,37.08
2019-03-31T17:50:02.620Z,38.10
2019-03-31T17:52:33.097Z,37.78
2019-03-31T17:55:03.505Z,32.58
2019-03-31T17:57:34.172Z,34.27
2019-03-31T18:00:07.127Z,32.05
2019-03-31T18:02:37.631Z,35.28
2019-03-31T18:05:08.425Z,31.37
2019-03-31T18:07:39.087Z,35.00
2019-03-31T18:10:20.102Z,31.62
2019-03-31T18:12:44.822Z,30.57
2019-03-31T18:15:15.304Z,28.45
2019-03-31T18:17:47.185Z,32.55
2019-03-31T18:20:18.347Z,25.30
2019-03-31T18:22:48.810Z,27.48
2019-03-31T18:25:19.276Z,25.17
2019-03-31T18:27:52.150Z,30.37
2019-03-31T18:30:22.742Z,27.20
2019-03-31T18:32:53.177Z,24.07
2019-03-31T18:35:24.016Z,23.50
2019-03-31T18:37:54.389Z,24.82
2019-03-31T18:40:34.940Z,26.90
2019-03-31T18:42:56.982Z,24.45
2019-03-31T18:45:27.218Z,26.73
2019-03-31T18:48:00.893Z,25.08
2019-03-31T18:50:33.883Z,24.98
2019-03-31T18:53:05.349Z,25.80
2019-03-31T18:55:49.406Z,23.92
2019-03-31T18:58:28.380Z,26.30
2019-03-31T19:01:20.712Z,26.25
2019-03-31T19:04:27.823Z,25.10
2019-03-31T19:07:20.146Z,24.20
2019-03-31T19:10:25.238Z,28.32
2019-03-31T19:13:17.989Z,25.90
2019-03-31T19:16:17.227Z,28.67
2019-03-31T19:19:06.447Z,23.60
2019-03-31T19:21:56.034Z,26.00
2019-03-31T19:24:40.863Z,23.90
2019-03-31T19:27:39.058Z,24.45
2019-03-31T19:30:27.299Z,26.05
2019-03-31T19:33:25.935Z,28.60
2019-03-31T19:36:15.574Z,22.60
2019-03-31T19:39:06.406Z,23.98
2019-03-31T19:41:54.760Z,22.50
2019-03-31T19:44:54.380Z,24.60
2019-03-31T19:47:44.054Z,26.00
2019-03-31T19:50:40.962Z,21.93
2019-03-31T19:53:45.494Z,25.50
2019-03-31T19:56:38.236Z,21.62
2019-03-31T19:59:19.113Z,21.42
2019-03-31T20:02:11.903Z,22.60
2019-03-31T20:05:07.250Z,24.67
2019-03-31T20:08:12.307Z,25.88
2019-03-31T20:11:04.450Z,27.15
2019-03-31T20:13:54.375Z,25.43
2019-03-31T20:16:59.082Z,22.73
2019-03-31T20:19:48.345Z,29.82
2019-03-31T20:22:27.120Z,25.82
2019-03-31T20:25:12.662Z,21.95
2019-03-31T20:27:59.823Z,24.45
2019-03-31T20:30:49.752Z,24.95
2019-03-31T20:33:48.286Z,25.88
2019-03-31T20:36:30.104Z,26.95
2019-03-31T20:39:21.755Z,25.23
2019-03-31T20:42:04.555Z,26.73
2019-03-31T20:44:35.023Z,26.80
2019-03-31T20:47:05.654Z,24.90
2019-03-31T20:49:36.180Z,26.60
2019-03-31T20:52:06.810Z,27.62
2019-03-31T20:54:37.262Z,26.42
2019-03-31T20:57:07.786Z,24.80
2019-03-31T20:59:39.193Z,22.62
2019-03-31T21:02:09.637Z,25.68
2019-03-31T21:04:40.289Z,26.55
2019-03-31T21:07:11.599Z,25.00
2019-03-31T21:09:45.071Z,30.45
2019-03-31T21:12:14.145Z,25.43
2019-03-31T21:14:44.432Z,27.52
2019-03-31T21:17:14.793Z,27.67
2019-03-31T21:19:45.285Z,26.40
2019-03-31T21:22:15.624Z,25.92
2019-03-31T21:24:47.274Z,28.10
2019-03-31T21:27:17.761Z,28.65
2019-03-31T21:29:48.186Z,29.30
2019-03-31T21:32:18.748Z,34.63
2019-03-31T21:34:49.208Z,26.48
2019-03-31T21:37:19.737Z,31.87
2019-03-31T21:39:50.293Z,29.67
2019-03-31T21:42:21.212Z,26.77
2019-03-31T21:44:52.031Z,29.27
2019-03-31T21:47:22.420Z,29.48
2019-03-31T21:49:53.058Z,28.50
2019-03-31T21:52:23.621Z,25.27
2019-03-31T21:54:54.364Z,26.37
2019-03-31T21:57:24.694Z,31.25
2019-03-31T21:59:55.631Z,32.23
2019-03-31T22:02:25.987Z,29.70
2019-03-31T22:04:56.419Z,28.07
2019-03-31T22:07:26.999Z,28.70
2019-03-31T22:09:57.522Z,29.77
2019-03-31T22:12:27.868Z,30.55
2019-03-31T22:14:58.500Z,30.20
2019-03-31T22:17:28.753Z,34.85
2019-03-31T22:19:59.163Z,29.25
2019-03-31T22:22:29.642Z,29.40
2019-03-31T22:25:00.381Z,31.82
2019-03-31T22:27:30.928Z,27.32
2019-03-31T22:30:01.779Z,31.93
2019-03-31T22:32:33.882Z,29.42
2019-03-31T22:35:05.479Z,30.50
2019-03-31T22:37:36.344Z,29.12
2019-03-31T22:40:07.965Z,31.05
2019-03-31T22:42:38.418Z,30.95
2019-03-31T22:45:09.225Z,30.85
2019-03-31T22:47:39.518Z,30.17
2019-03-31T22:50:09.962Z,30.15
2019-03-31T22:52:40.313Z,27.93
2019-03-31T22:55:10.929Z,31.20
2019-03-31T22:57:41.232Z,29.48
2019-03-31T23:00:17.527Z,30.68
2019-03-31T23:02:50.369Z,36.25
2019-03-31T23:05:20.932Z,30.77
2019-03-31T23:07:51.236Z,29.82
2019-03-31T23:10:21.755Z,33.75
2019-03-31T23:12:52.148Z,33.53
2019-03-31T23:15:22.561Z,38.28
2019-03-31T23:17:52.913Z,36.93
2019-03-31T23:20:23.266Z,30.55
2019-03-31T23:22:54.048Z,34.45
2019-03-31T23:25:24.806Z,37.35
2019-03-31T23:27:55.139Z,34.88
2019-03-31T23:30:25.475Z,34.65
2019-03-31T23:32:55.897Z,35.17
2019-03-31T23:35:26.353Z,39.60
2019-03-31T23:37:56.741Z,34.15
2019-03-31T23:40:28.336Z,38.30
2019-03-31T23:42:58.699Z,37.65
2019-03-31T23:45:32.232Z,38.00
2019-03-31T23:48:01.414Z,32.63
2019-03-31T23:50:31.918Z,34.30
2019-03-31T23:53:02.434Z,37.15
2019-03-31T23:55:33.205Z,42.10
2019-03-31T23:58:03.782Z,36.08
